createdAt,value
2022-08-14T00:00:23.117Z,19.50
2022-08-14T00:07:07.011Z,19.40
2022-08-14T00:13:51.734Z,19.40
2022-08-14T00:20:42.858Z,19.30
2022-08-14T00:27:25.734Z,19.00
2022-08-14T00:34:37.045Z,19.20
2022-08-14T00:41:14.546Z,18.90
2022-08-14T00:47:58.308Z,18.80
2022-08-14T00:54:43.838Z,18.60
2022-08-14T01:01:28.500Z,18.40
2022-08-14T01:08:20.694Z,18.40
2022-08-14T01:15:21.370Z,18.30
2022-08-14T01:22:18.670Z,18.10
2022-08-14T01:29:03.920Z,18.30
2022-08-14T01:36:04.030Z,18.20
2022-08-14T01:42:49.532Z,18.00
2022-08-14T01:49:35.524Z,17.70
2022-08-14T01:56:18.840Z,17.60
2022-08-14T02:03:01.672Z,17.40
2022-08-14T02:09:44.427Z,17.50
2022-08-14T02:16:54.246Z,17.20
2022-08-14T02:23:37.388Z,17.30
2022-08-14T02:30:24.747Z,17.20
2022-08-14T02:37:14.025Z,17.00
2022-08-14T02:44:00.841Z,17.00
2022-08-14T02:50:43.889Z,17.10
2022-08-14T02:57:39.825Z,17.10
2022-08-14T03:04:23.839Z,17.10
2022-08-14T03:11:10.862Z,16.80
2022-08-14T03:17:57.197Z,16.60
2022-08-14T03:24:40.744Z,16.50
2022-08-14T03:31:26.143Z,17.00
2022-08-14T03:39:13.229Z,16.50
2022-08-14T03:45:25.640Z,16.50
2022-08-14T03:52:38.064Z,16.60
2022-08-14T03:59:20.786Z,16.60
2022-08-14T04:06:04.763Z,16.60
2022-08-14T04:12:51.633Z,16.50
2022-08-14T04:19:36.530Z,16.60
2022-08-14T04:26:27.291Z,16.60
2022-08-14T04:33:24.480Z,16.60
2022-08-14T04:40:27.806Z,16.60
2022-08-14T04:47:30.989Z,16.60
2022-08-14T04:54:13.425Z,16.70
2022-08-14T05:00:59.298Z,16.90
2022-08-14T05:07:54.118Z,17.00
2022-08-14T05:14:53.110Z,17.20
2022-08-14T05:22:00.059Z,17.70
2022-08-14T05:28:44.386Z,18.20
2022-08-14T05:35:27.430Z,18.70
2022-08-14T05:42:21.481Z,20.70
2022-08-14T05:49:05.441Z,22.70
2022-08-14T05:55:52.417Z,23.40
2022-08-14T06:02:35.288Z,25.50
2022-08-14T06:09:17.679Z,25.20
2022-08-14T06:16:00.027Z,25.90
2022-08-14T06:22:44.085Z,24.90
2022-08-14T06:29:27.593Z,26.20
2022-08-14T06:36:19.288Z,27.60
2022-08-14T06:43:08.145Z,30.50
2022-08-14T06:49:57.678Z,31.00
2022-08-14T06:56:57.005Z,31.40
2022-08-14T07:04:03.683Z,33.50
2022-08-14T07:10:47.868Z,35.30
2022-08-14T07:17:31.970Z,35.50
2022-08-14T07:24:22.105Z,35.70
2022-08-14T07:31:13.659Z,36.40
2022-08-14T07:37:58.914Z,37.90
2022-08-14T07:44:46.645Z,38.10
2022-08-14T07:51:36.896Z,39.30
2022-08-14T07:58:31.770Z,38.70
2022-08-14T08:05:18.345Z,38.90
2022-08-14T08:12:09.126Z,38.30
2022-08-14T08:19:02.909Z,39.50
2022-08-14T08:25:50.027Z,40.30
2022-08-14T08:32:43.744Z,40.70
2022-08-14T08:39:30.797Z,41.40
2022-08-14T08:46:28.950Z,41.50
2022-08-14T08:53:11.306Z,38.80
2022-08-14T08:59:55.122Z,38.60
2022-08-14T09:07:00.835Z,38.30
2022-08-14T09:13:53.416Z,39.60
2022-08-14T09:20:38.792Z,38.80
2022-08-14T09:27:22.782Z,37.10
2022-08-14T09:34:27.354Z,38.40
2022-08-14T09:42:20.610Z,39.20
2022-08-14T09:48:37.789Z,38.70
2022-08-14T09:55:23.768Z,38.10
2022-08-14T10:02:31.157Z,36.70
2022-08-14T10:09:16.964Z,36.60
2022-08-14T10:16:00.227Z,38.00
2022-08-14T10:23:14.811Z,37.40
2022-08-14T10:29:49.468Z,38.60
2022-08-14T10:36:40.657Z,38.80
2022-08-14T10:43:31.900Z,38.60
2022-08-14T10:50:16.051Z,37.10
2022-08-14T10:57:20.047Z,36.70
2022-08-14T11:04:03.266Z,34.20
2022-08-14T11:10:55.738Z,32.60
2022-08-14T11:17:39.391Z,32.10
2022-08-14T11:24:50.872Z,31.60
2022-08-14T11:31:39.015Z,31.50
2022-08-14T11:38:22.139Z,31.60
2022-08-14T11:45:11.043Z,31.50
2022-08-14T11:51:59.193Z,31.50
2022-08-14T11:58:43.437Z,31.40
2022-08-14T12:05:42.209Z,31.50
2022-08-14T12:12:35.172Z,31.80
2022-08-14T12:19:17.806Z,31.70
2022-08-14T12:26:31.536Z,31.30
2022-08-14T12:33:30.583Z,31.30
2022-08-14T12:40:20.655Z,31.20
2022-08-14T12:47:13.499Z,31.40
2022-08-14T12:53:59.585Z,31.70
2022-08-14T13:01:12.623Z,31.80
2022-08-14T13:07:55.440Z,31.70
2022-08-14T13:14:38.718Z,31.50
2022-08-14T13:21:21.081Z,31.80
2022-08-14T13:28:05.077Z,32.00
2022-08-14T13:34:53.848Z,32.00
2022-08-14T13:41:38.468Z,32.20
2022-08-14T13:48:33.465Z,32.10
2022-08-14T13:55:20.479Z,31.80
2022-08-14T14:02:07.856Z,32.00
2022-08-14T14:08:55.211Z,32.10
2022-08-14T14:15:48.694Z,32.50
2022-08-14T14:23:02.253Z,32.60
2022-08-14T14:29:50.612Z,32.20
2022-08-14T14:36:40.631Z,32.10
2022-08-14T14:43:26.258Z,32.00
2022-08-14T14:50:11.344Z,32.40
2022-08-14T14:56:56.177Z,32.30
2022-08-14T15:03:39.919Z,32.10
2022-08-14T15:10:31.152Z,32.20
2022-08-14T15:17:18.672Z,32.10
2022-08-14T15:24:03.994Z,32.00
2022-08-14T15:30:57.738Z,32.10
2022-08-14T15:37:42.401Z,32.30
2022-08-14T15:44:29.904Z,32.40
2022-08-14T15:51:16.767Z,32.30
2022-08-14T15:58:03.778Z,32.40
2022-08-14T16:04:50.797Z,32.30
2022-08-14T16:11:34.274Z,32.50
2022-08-14T16:18:20.088Z,32.40
2022-08-14T16:25:03.874Z,32.40
2022-08-14T16:31:46.907Z,32.50
2022-08-14T16:38:45.462Z,32.30
2022-08-14T16:45:30.950Z,32.30
2022-08-14T16:52:25.129Z,32.40
2022-08-14T16:59:17.818Z,32.20
2022-08-14T17:06:00.646Z,31.80
2022-08-14T17:12:43.378Z,31.60
2022-08-14T17:19:40.215Z,31.50
2022-08-14T17:26:45.288Z,31.40
2022-08-14T17:33:40.731Z,31.20
2022-08-14T17:40:30.472Z,30.80
2022-08-14T17:47:18.226Z,30.60
2022-08-14T17:54:04.708Z,30.20
2022-08-14T18:00:58.283Z,29.80
2022-08-14T18:08:00.218Z,29.40
2022-08-14T18:14:52.726Z,29.00
2022-08-14T18:21:43.112Z,28.50
2022-08-14T18:28:51.717Z,28.40
2022-08-14T18:35:45.877Z,28.30
2022-08-14T18:42:45.719Z,28.10
2022-08-14T18:49:28.558Z,28.00
2022-08-14T18:56:18.398Z,27.80
2022-08-14T19:03:07.937Z,27.70
2022-08-14T19:09:54.675Z,27.50
2022-08-14T19:16:48.400Z,27.40
2022-08-14T19:23:42.885Z,27.40
2022-08-14T19:30:29.181Z,27.40
2022-08-14T19:37:15.503Z,27.20
2022-08-14T19:44:19.315Z,27.10
2022-08-14T19:51:03.851Z,27.10
2022-08-14T19:57:51.977Z,27.00
2022-08-14T20:04:46.159Z,26.80
2022-08-14T20:11:43.349Z,26.70
2022-08-14T20:18:49.913Z,26.60
2022-08-14T20:25:37.108Z,26.50
2022-08-14T20:32:59.246Z,26.50
2022-08-14T20:39:53.667Z,26.50
2022-08-14T20:46:39.383Z,26.50
2022-08-14T20:53:33.931Z,26.40
2022-08-14T21:00:38.350Z,26.30
2022-08-14T21:07:50.433Z,26.20
2022-08-14T21:14:34.252Z,26.30
2022-08-14T21:21:19.863Z,26.30
2022-08-14T21:28:09.602Z,26.30
2022-08-14T21:35:13.410Z,26.30
2022-08-14T21:41:59.432Z,26.40
2022-08-14T21:48:44.423Z,26.40
2022-08-14T21:55:26.905Z,26.30
2022-08-14T22:02:32.558Z,26.10
2022-08-14T22:09:16.536Z,26.00
2022-08-14T22:16:04.521Z,25.90
2022-08-14T22:22:47.116Z,25.80
2022-08-14T22:29:29.524Z,25.70
2022-08-14T22:36:34.247Z,25.80
2022-08-14T22:43:25.162Z,25.60
2022-08-14T22:50:30.601Z,25.70
2022-08-14T22:57:12.363Z,25.60
2022-08-14T23:03:55.119Z,25.60
2022-08-14T23:10:38.696Z,25.50
2022-08-14T23:17:21.663Z,25.40
2022-08-14T23:24:04.990Z,25.40
2022-08-14T23:30:49.027Z,25.50
2022-08-14T23:37:31.660Z,25.50
2022-08-14T23:44:15.209Z,25.40
2022-08-14T23:50:58.949Z,25.20
2022-08-14T23:57:57.904Z,25.20
